메인 페이지
METAR-TAF:

METAR-TAF

공항 :

부줌부라, 부룬디

위도: 03-19S, 경도: 029-19E, 고도: 782m

현재 날씨관측

예보는 8 시간 25분 전, 11:00시(UTC)에 발표되었습니다.
16kt
온도 31°C
습도 38%
기압 1012 hPa
시정: 6000m
고도 3000ft 상공 구름 조금, 타워링 적운.
고도 10000ft 상공 구름 많음

METAR: HBBA 201100Z 18016KT 6000 FEW030TCU BKN100 31/15 Q1012 NOSIG

시각: 21:25 (19:25 UTC)

예보

예보는 2 시간 25분 전, 17:00시(UTC)에 발표되었습니다.
예보 대상 시간: 20일 18시부터 21일 24시까지 (UTC)
4kt
시정 10km 이상
고도 3000ft 상공 구름 조금
고도 10000ft 상공 구름 많음
전환 중
21일 03시부터 21일 05시까지 (UTC)
여러 방향의 바람 3kt
시정: 5000m
고도 2500ft 상공 구름 조금
연무
전환 중
21일 08시부터 21일 10시까지 (UTC)
12kt, 순간 최대 풍속 25kt
시정: 8000m
고도 3500ft 상공 구름 조금
전환 중
21일 16시부터 21일 18시까지 (UTC)
kt
시정 10km 이상
1500m 미만 상공 구름 및 적란운 없음

TAF: HBBA 201700Z 2018/2124 36004KT 9999 FEW030 BKN100 BECMG 2103/2105 VRB03KT 5000 HZ FEW025 BECMG 2108/2110 18012G25KT 8000 FEW035 BECMG 2116/2118 00000KT CAVOK

4,000개 이상의 공항 관측 자료 및 예보 (METAR 및 TAF 보고).

지도상에서 검색 가능한 기상관측소가 노란 점과 빨간 점으로 표시되어 있습니다.

기상관측소 명을 보려면 표시 위로 마우스를 이동하세요.

날씨 관측과 예보를 보려면 클릭하세요.

지도 변경 : 확대하려면 엑스 표시가 있는 녹색 버튼, 축소하려면 빼기 표시가 있는 녹색 버튼, 다음 페이지의 지도를 보려면 녹색 화살표를 클릭하세요.


METAR-TAF: